sensor_id;sensor_type;location;lat;lon;timestamp;pressure;altitude;pressure_sealevel;temperature;humidity
12349;BME280;5974;42.710;27.258;2023-02-17T00:01:12;101129.47;;;1.18;100.00
12349;BME280;5974;42.710;27.258;2023-02-17T00:03:39;101132.63;;;0.97;100.00
12349;BME280;5974;42.710;27.258;2023-02-17T00:06:07;101127.22;;;1.42;100.00
12349;BME280;5974;42.710;27.258;2023-02-17T00:08:34;101118.72;;;1.51;100.00
12349;BME280;5974;42.710;27.258;2023-02-17T00:11:02;101113.66;;;1.60;100.00
12349;BME280;5974;42.710;27.258;2023-02-17T00:13:29;101119.16;;;1.17;100.00
12349;BME280;5974;42.710;27.258;2023-02-17T00:15:56;101118.22;;;1.10;100.00
12349;BME280;5974;42.710;27.258;2023-02-17T00:18:23;101120.00;;;1.17;100.00
12349;BME280;5974;42.710;27.258;2023-02-17T00:20:50;101114.81;;;1.14;100.00
12349;BME280;5974;42.710;27.258;2023-02-17T00:23:17;101104.16;;;0.90;100.00
12349;BME280;5974;42.710;27.258;2023-02-17T00:25:44;101111.06;;;0.91;100.00
12349;BME280;5974;42.710;27.258;2023-02-17T00:28:12;101108.66;;;1.01;100.00
12349;BME280;5974;42.710;27.258;2023-02-17T00:30:39;101099.50;;;1.26;100.00
12349;BME280;5974;42.710;27.258;2023-02-17T00:33:06;101097.81;;;1.27;100.00
12349;BME280;5974;42.710;27.258;2023-02-17T00:35:33;101098.41;;;1.04;100.00
12349;BME280;5974;42.710;27.258;2023-02-17T00:38:04;101093.88;;;0.90;100.00
12349;BME280;5974;42.710;27.258;2023-02-17T00:40:31;101100.38;;;0.65;100.00
12349;BME280;5974;42.710;27.258;2023-02-17T00:42:57;101096.66;;;0.46;100.00
12349;BME280;5974;42.710;27.258;2023-02-17T00:45:26;101103.06;;;0.73;100.00
12349;BME280;5974;42.710;27.258;2023-02-17T00:47:52;101097.56;;;0.50;100.00
12349;BME280;5974;42.710;27.258;2023-02-17T00:50:19;101096.28;;;0.78;100.00
12349;BME280;5974;42.710;27.258;2023-02-17T00:52:46;101095.75;;;0.98;100.00
12349;BME280;5974;42.710;27.258;2023-02-17T00:55:13;101090.66;;;0.46;100.00
12349;BME280;5974;42.710;27.258;2023-02-17T00:57:40;101085.16;;;0.79;100.00
12349;BME280;5974;42.710;27.258;2023-02-17T01:00:07;101070.41;;;0.67;100.00
12349;BME280;5974;42.710;27.258;2023-02-17T01:02:36;101073.72;;;0.60;100.00
12349;BME280;5974;42.710;27.258;2023-02-17T01:05:03;101079.66;;;0.56;100.00
12349;BME280;5974;42.710;27.258;2023-02-17T01:07:30;101077.94;;;0.55;100.00
12349;BME280;5974;42.710;27.258;2023-02-17T01:09:57;101073.66;;;0.57;100.00
12349;BME280;5974;42.710;27.258;2023-02-17T01:12:24;101065.59;;;0.33;100.00
12349;BME280;5974;42.710;27.258;2023-02-17T01:14:51;101068.06;;;0.27;100.00
12349;BME280;5974;42.710;27.258;2023-02-17T01:17:17;101073.59;;;0.51;100.00
12349;BME280;5974;42.710;27.258;2023-02-17T01:19:46;101062.66;;;0.66;100.00
12349;BME280;5974;42.710;27.258;2023-02-17T01:22:12;101064.56;;;0.79;100.00
12349;BME280;5974;42.710;27.258;2023-02-17T01:24:39;101056.78;;;0.76;100.00
12349;BME280;5974;42.710;27.258;2023-02-17T01:27:06;101061.81;;;0.68;100.00
12349;BME280;5974;42.710;27.258;2023-02-17T01:29:33;101053.59;;;0.92;100.00
12349;BME280;5974;42.710;27.258;2023-02-17T01:32:00;101047.66;;;0.99;100.00
12349;BME280;5974;42.710;27.258;2023-02-17T01:34:27;101047.25;;;0.67;100.00
12349;BME280;5974;42.710;27.258;2023-02-17T01:36:55;101041.97;;;0.60;100.00
12349;BME280;5974;42.710;27.258;2023-02-17T01:39:22;101048.50;;;0.36;100.00
12349;BME280;5974;42.710;27.258;2023-02-17T01:41:48;101042.00;;;0.06;100.00
12349;BME280;5974;42.710;27.258;2023-02-17T01:44:18;101043.59;;;-0.01;100.00
12349;BME280;5974;42.710;27.258;2023-02-17T01:46:47;101045.59;;;0.17;100.00
12349;BME280;5974;42.710;27.258;2023-02-17T01:49:26;101049.44;;;0.41;100.00
12349;BME280;5974;42.710;27.258;2023-02-17T01:52:01;101042.75;;;0.54;100.00
12349;BME280;5974;42.710;27.258;2023-02-17T01:54:33;101039.69;;;0.22;100.00
12349;BME280;5974;42.710;27.258;2023-02-17T01:57:02;101037.00;;;0.16;100.00
12349;BME280;5974;42.710;27.258;2023-02-17T01:59:29;101036.09;;;0.11;100.00
12349;BME280;5974;42.710;27.258;2023-02-17T02:01:59;101034.19;;;0.01;100.00
12349;BME280;5974;42.710;27.258;2023-02-17T02:04:29;101029.16;;;0.06;100.00
12349;BME280;5974;42.710;27.258;2023-02-17T02:06:59;101019.44;;;0.43;100.00
12349;BME280;5974;42.710;27.258;2023-02-17T02:09:29;101036.31;;;0.26;100.00
12349;BME280;5974;42.710;27.258;2023-02-17T02:11:58;101013.22;;;0.29;100.00
12349;BME280;5974;42.710;27.258;2023-02-17T02:14:25;101021.78;;;0.28;100.00
12349;BME280;5974;42.710;27.258;2023-02-17T02:16:58;101017.13;;;0.03;100.00
12349;BME280;5974;42.710;27.258;2023-02-17T02:26:10;100998.16;;;0.52;100.00
12349;BME280;5974;42.710;27.258;2023-02-17T02:28:51;100999.16;;;0.63;100.00
12349;BME280;5974;42.710;27.258;2023-02-17T02:31:28;101001.94;;;0.18;100.00
12349;BME280;5974;42.710;27.258;2023-02-17T02:34:03;100996.88;;;0.24;100.00
12349;BME280;5974;42.710;27.258;2023-02-17T02:36:37;101003.81;;;0.31;100.00
12349;BME280;5974;42.710;27.258;2023-02-17T02:39:09;100998.53;;;0.21;100.00
12349;BME280;5974;42.710;27.258;2023-02-17T02:41:39;100998.31;;;0.07;100.00
12349;BME280;5974;42.710;27.258;2023-02-17T02:44:09;100979.16;;;0.42;100.00
12349;BME280;5974;42.710;27.258;2023-02-17T02:46:36;100991.31;;;0.55;100.00
12349;BME280;5974;42.710;27.258;2023-02-17T02:49:04;101002.53;;;0.04;100.00
12349;BME280;5974;42.710;27.258;2023-02-17T02:51:42;101003.66;;;0.19;100.00
12349;BME280;5974;42.710;27.258;2023-02-17T02:54:18;101000.19;;;0.17;100.00
12349;BME280;5974;42.710;27.258;2023-02-17T02:57:00;101001.66;;;0.59;100.00
12349;BME280;5974;42.710;27.258;2023-02-17T02:59:41;101011.69;;;0.40;100.00
12349;BME280;5974;42.710;27.258;2023-02-17T03:02:15;100993.00;;;0.53;100.00
12349;BME280;5974;42.710;27.258;2023-02-17T03:04:51;100995.59;;;0.52;100.00
12349;BME280;5974;42.710;27.258;2023-02-17T03:07:25;100999.59;;;0.35;100.00
12349;BME280;5974;42.710;27.258;2023-02-17T03:09:55;100991.34;;;0.59;100.00
12349;BME280;5974;42.710;27.258;2023-02-17T03:12:24;101001.28;;;0.94;100.00
12349;BME280;5974;42.710;27.258;2023-02-17T03:14:53;100993.72;;;1.08;100.00
12349;BME280;5974;42.710;27.258;2023-02-17T03:17:21;101007.72;;;1.31;100.00
12349;BME280;5974;42.710;27.258;2023-02-17T03:19:50;101006.91;;;1.34;100.00
12349;BME280;5974;42.710;27.258;2023-02-17T03:22:21;101009.53;;;1.40;100.00
12349;BME280;5974;42.710;27.258;2023-02-17T03:24:48;101002.88;;;1.60;100.00
12349;BME280;5974;42.710;27.258;2023-02-17T03:27:16;101014.81;;;1.50;100.00
12349;BME280;5974;42.710;27.258;2023-02-17T03:29:43;101026.06;;;1.58;100.00
12349;BME280;5974;42.710;27.258;2023-02-17T03:32:09;101022.69;;;1.66;100.00
12349;BME280;5974;42.710;27.258;2023-02-17T03:34:36;101026.22;;;1.74;100.00
12349;BME280;5974;42.710;27.258;2023-02-17T03:37:05;101025.38;;;1.75;100.00
12349;BME280;5974;42.710;27.258;2023-02-17T03:39:31;101024.56;;;1.82;100.00
12349;BME280;5974;42.710;27.258;2023-02-17T03:41:58;101024.41;;;1.65;100.00
12349;BME280;5974;42.710;27.258;2023-02-17T03:44:25;101034.94;;;1.86;100.00
12349;BME280;5974;42.710;27.258;2023-02-17T03:46:52;101028.13;;;1.93;100.00
12349;BME280;5974;42.710;27.258;2023-02-17T03:49:19;101034.31;;;2.14;100.00
12349;BME280;5974;42.710;27.258;2023-02-17T03:51:45;101030.06;;;2.18;100.00
12349;BME280;5974;42.710;27.258;2023-02-17T03:54:14;101033.53;;;2.25;100.00
12349;BME280;5974;42.710;27.258;2023-02-17T03:56:40;101028.91;;;1.84;100.00
12349;BME280;5974;42.710;27.258;2023-02-17T03:59:07;101032.22;;;1.71;100.00
12349;BME280;5974;42.710;27.258;2023-02-17T04:01:34;101029.78;;;1.91;100.00
12349;BME280;5974;42.710;27.258;2023-02-17T04:04:01;101022.69;;;1.62;100.00
12349;BME280;5974;42.710;27.258;2023-02-17T04:06:28;101008.03;;;1.60;100.00
12349;BME280;5974;42.710;27.258;2023-02-17T04:08:56;101020.28;;;1.81;100.00
12349;BME280;5974;42.710;27.258;2023-02-17T04:11:24;101022.28;;;2.16;100.00
12349;BME280;5974;42.710;27.258;2023-02-17T04:13:51;101016.22;;;2.10;100.00
12349;BME280;5974;42.710;27.258;2023-02-17T04:16:18;101013.66;;;2.11;100.00
12349;BME280;5974;42.710;27.258;2023-02-17T04:18:45;101012.59;;;1.87;100.00
12349;BME280;5974;42.710;27.258;2023-02-17T04:21:12;101019.53;;;1.94;100.00
12349;BME280;5974;42.710;27.258;2023-02-17T04:23:39;101028.28;;;2.11;100.00
12349;BME280;5974;42.710;27.258;2023-02-17T04:26:07;101023.91;;;2.02;100.00
12349;BME280;5974;42.710;27.258;2023-02-17T04:28:36;101031.88;;;2.34;100.00
12349;BME280;5974;42.710;27.258;2023-02-17T04:31:04;101023.19;;;2.20;100.00
12349;BME280;5974;42.710;27.258;2023-02-17T04:33:31;101021.38;;;2.10;100.00
12349;BME280;5974;42.710;27.258;2023-02-17T04:35:58;101032.63;;;2.18;100.00
12349;BME280;5974;42.710;27.258;2023-02-17T04:38:25;101036.16;;;2.28;100.00
12349;BME280;5974;42.710;27.258;2023-02-17T04:40:53;101030.88;;;2.14;100.00
12349;BME280;5974;42.710;27.258;2023-02-17T04:43:21;101001.47;;;1.92;100.00
12349;BME280;5974;42.710;27.258;2023-02-17T04:45:49;101028.13;;;1.94;100.00
12349;BME280;5974;42.710;27.258;2023-02-17T04:48:16;101048.06;;;2.12;100.00
12349;BME280;5974;42.710;27.258;2023-02-17T04:50:44;101046.41;;;2.20;100.00
12349;BME280;5974;42.710;27.258;2023-02-17T04:53:11;101050.97;;;2.59;100.00
12349;BME280;5974;42.710;27.258;2023-02-17T04:55:39;101031.72;;;2.13;100.00
12349;BME280;5974;42.710;27.258;2023-02-17T04:58:06;101032.72;;;2.29;100.00
12349;BME280;5974;42.710;27.258;2023-02-17T05:00:33;101043.84;;;2.23;100.00
12349;BME280;5974;42.710;27.258;2023-02-17T05:03:01;101044.00;;;2.44;100.00
12349;BME280;5974;42.710;27.258;2023-02-17T05:05:28;101042.09;;;2.21;100.00
12349;BME280;5974;42.710;27.258;2023-02-17T05:07:55;101044.53;;;2.02;100.00
12349;BME280;5974;42.710;27.258;2023-02-17T05:10:22;101041.78;;;1.84;100.00
12349;BME280;5974;42.710;27.258;2023-02-17T05:12:48;101044.63;;;2.16;100.00
12349;BME280;5974;42.710;27.258;2023-02-17T05:15:17;101043.16;;;2.42;100.00
12349;BME280;5974;42.710;27.258;2023-02-17T05:17:44;101044.00;;;2.44;100.00
12349;BME280;5974;42.710;27.258;2023-02-17T05:20:12;101044.09;;;2.55;100.00
12349;BME280;5974;42.710;27.258;2023-02-17T05:22:39;101043.03;;;2.27;100.00
12349;BME280;5974;42.710;27.258;2023-02-17T05:25:06;101034.41;;;2.27;100.00
12349;BME280;5974;42.710;27.258;2023-02-17T05:27:33;101034.44;;;2.31;100.00
12349;BME280;5974;42.710;27.258;2023-02-17T05:30:00;101037.97;;;2.42;100.00
12349;BME280;5974;42.710;27.258;2023-02-17T05:32:27;101031.28;;;2.70;100.00
12349;BME280;5974;42.710;27.258;2023-02-17T05:34:54;101029.63;;;2.80;100.00
12349;BME280;5974;42.710;27.258;2023-02-17T05:37:22;101026.88;;;2.57;100.00
12349;BME280;5974;42.710;27.258;2023-02-17T05:39:49;101029.81;;;3.25;100.00
12349;BME280;5974;42.710;27.258;2023-02-17T05:42:15;101014.19;;;2.96;100.00
12349;BME280;5974;42.710;27.258;2023-02-17T05:44:42;101020.28;;;3.06;100.00
12349;BME280;5974;42.710;27.258;2023-02-17T05:47:09;101021.94;;;2.96;100.00
12349;BME280;5974;42.710;27.258;2023-02-17T05:49:36;101016.88;;;3.19;100.00
12349;BME280;5974;42.710;27.258;2023-02-17T05:52:03;101028.22;;;3.65;100.00
12349;BME280;5974;42.710;27.258;2023-02-17T05:54:31;101022.22;;;4.25;100.00
12349;BME280;5974;42.710;27.258;2023-02-17T05:56:58;101022.25;;;4.26;100.00
12349;BME280;5974;42.710;27.258;2023-02-17T05:59:25;101004.75;;;5.18;100.00
12349;BME280;5974;42.710;27.258;2023-02-17T06:01:52;101003.00;;;6.49;100.00
12349;BME280;5974;42.710;27.258;2023-02-17T06:04:19;100993.25;;;7.39;100.00
12349;BME280;5974;42.710;27.258;2023-02-17T06:06:46;100984.66;;;7.91;100.00
12349;BME280;5974;42.710;27.258;2023-02-17T06:09:13;100980.50;;;8.82;100.00
12349;BME280;5974;42.710;27.258;2023-02-17T06:11:41;100975.00;;;8.95;100.00
12349;BME280;5974;42.710;27.258;2023-02-17T06:14:08;100975.06;;;10.75;100.00
12349;BME280;5974;42.710;27.258;2023-02-17T06:16:35;100977.16;;;11.53;86.39
12349;BME280;5974;42.710;27.258;2023-02-17T06:19:01;100975.53;;;9.51;85.58
12349;BME280;5974;42.710;27.258;2023-02-17T06:21:29;100982.34;;;9.58;88.66
12349;BME280;5974;42.710;27.258;2023-02-17T06:23:56;100972.03;;;9.53;84.04
12349;BME280;5974;42.710;27.258;2023-02-17T06:26:23;100968.72;;;9.45;84.70
12349;BME280;5974;42.710;27.258;2023-02-17T06:28:51;100981.75;;;9.47;85.66
12349;BME280;5974;42.710;27.258;2023-02-17T06:31:18;100987.28;;;8.46;88.25
12349;BME280;5974;42.710;27.258;2023-02-17T06:33:45;100979.94;;;9.09;88.31
12349;BME280;5974;42.710;27.258;2023-02-17T06:36:12;100988.03;;;10.47;84.77
12349;BME280;5974;42.710;27.258;2023-02-17T06:38:39;100978.63;;;10.72;81.71
12349;BME280;5974;42.710;27.258;2023-02-17T06:41:06;100985.66;;;11.60;76.00
12349;BME280;5974;42.710;27.258;2023-02-17T06:43:33;100977.84;;;13.36;70.82
12349;BME280;5974;42.710;27.258;2023-02-17T06:46:01;100967.56;;;13.96;65.70
12349;BME280;5974;42.710;27.258;2023-02-17T06:48:28;100986.31;;;12.46;67.73
12349;BME280;5974;42.710;27.258;2023-02-17T06:50:57;100981.53;;;11.53;69.29
12349;BME280;5974;42.710;27.258;2023-02-17T06:53:24;100982.72;;;13.68;66.88
12349;BME280;5974;42.710;27.258;2023-02-17T06:55:51;100975.53;;;13.03;64.93
12349;BME280;5974;42.710;27.258;2023-02-17T06:58:18;100981.22;;;14.87;62.35
12349;BME280;5974;42.710;27.258;2023-02-17T07:00:45;100972.59;;;14.23;61.02
12349;BME280;5974;42.710;27.258;2023-02-17T07:03:13;100975.50;;;14.15;60.67
12349;BME280;5974;42.710;27.258;2023-02-17T07:05:39;100979.50;;;15.43;58.92
12349;BME280;5974;42.710;27.258;2023-02-17T07:08:06;100976.84;;;14.67;59.42
12349;BME280;5974;42.710;27.258;2023-02-17T07:10:33;100980.78;;;15.35;58.41
12349;BME280;5974;42.710;27.258;2023-02-17T07:13:00;100977.53;;;15.48;56.00
12349;BME280;5974;42.710;27.258;2023-02-17T07:15:27;100973.50;;;14.63;57.25
12349;BME280;5974;42.710;27.258;2023-02-17T07:17:54;100963.47;;;14.92;57.12
12349;BME280;5974;42.710;27.258;2023-02-17T07:20:22;100977.91;;;15.59;54.14
12349;BME280;5974;42.710;27.258;2023-02-17T07:22:49;100972.50;;;16.50;53.47
12349;BME280;5974;42.710;27.258;2023-02-17T07:25:16;100970.28;;;16.92;51.34
12349;BME280;5974;42.710;27.258;2023-02-17T07:27:43;100976.53;;;16.22;52.03
12349;BME280;5974;42.710;27.258;2023-02-17T07:30:10;100968.81;;;17.68;50.70
12349;BME280;5974;42.710;27.258;2023-02-17T07:32:37;100979.59;;;14.02;53.96
12349;BME280;5974;42.710;27.258;2023-02-17T07:35:04;100990.00;;;13.15;58.24
12349;BME280;5974;42.710;27.258;2023-02-17T07:37:33;100982.25;;;13.12;58.24
12349;BME280;5974;42.710;27.258;2023-02-17T07:40:00;100985.97;;;10.24;64.40
12349;BME280;5974;42.710;27.258;2023-02-17T07:42:27;100993.66;;;9.95;68.63
12349;BME280;5974;42.710;27.258;2023-02-17T07:44:54;100995.28;;;9.24;72.84
12349;BME280;5974;42.710;27.258;2023-02-17T07:47:20;100993.38;;;10.07;72.61
12349;BME280;5974;42.710;27.258;2023-02-17T07:49:47;100980.81;;;10.23;71.10
12349;BME280;5974;42.710;27.258;2023-02-17T07:52:15;100986.78;;;9.91;72.62
12349;BME280;5974;42.710;27.258;2023-02-17T07:54:44;100970.19;;;9.57;74.59
12349;BME280;5974;42.710;27.258;2023-02-17T07:57:12;100985.59;;;9.69;74.92
12349;BME280;5974;42.710;27.258;2023-02-17T07:59:38;100983.22;;;10.30;72.84
12349;BME280;5974;42.710;27.258;2023-02-17T08:02:06;100982.91;;;9.72;73.61
12349;BME280;5974;42.710;27.258;2023-02-17T08:04:32;100988.59;;;9.88;73.82
12349;BME280;5974;42.710;27.258;2023-02-17T08:06:59;100984.75;;;9.29;75.99
12349;BME280;5974;42.710;27.258;2023-02-17T08:09:26;100992.22;;;9.82;76.39
12349;BME280;5974;42.710;27.258;2023-02-17T08:12:14;100993.97;;;10.18;72.93
12349;BME280;5974;42.710;27.258;2023-02-17T08:14:59;100981.41;;;10.66;72.64
12349;BME280;5974;42.710;27.258;2023-02-17T08:17:26;100990.47;;;10.19;72.87
12349;BME280;5974;42.710;27.258;2023-02-17T08:19:53;100991.97;;;10.29;71.81
12349;BME280;5974;42.710;27.258;2023-02-17T08:22:20;100997.59;;;10.14;71.12
12349;BME280;5974;42.710;27.258;2023-02-17T08:24:47;100991.34;;;9.45;73.08
12349;BME280;5974;42.710;27.258;2023-02-17T08:27:17;100997.94;;;9.61;72.79
12349;BME280;5974;42.710;27.258;2023-02-17T08:29:46;100997.94;;;9.22;74.46
12349;BME280;5974;42.710;27.258;2023-02-17T08:32:15;100997.69;;;9.33;75.68
12349;BME280;5974;42.710;27.258;2023-02-17T08:34:42;100992.00;;;9.93;74.71
12349;BME280;5974;42.710;27.258;2023-02-17T08:37:09;100965.00;;;10.27;73.58
12349;BME280;5974;42.710;27.258;2023-02-17T08:39:37;100987.47;;;10.36;72.92
12349;BME280;5974;42.710;27.258;2023-02-17T08:42:04;100999.44;;;10.08;72.08
12349;BME280;5974;42.710;27.258;2023-02-17T08:44:35;100993.25;;;10.13;72.80
12349;BME280;5974;42.710;27.258;2023-02-17T08:47:03;100993.00;;;10.56;72.89
12349;BME280;5974;42.710;27.258;2023-02-17T08:49:30;100985.69;;;11.01;71.79
12349;BME280;5974;42.710;27.258;2023-02-17T08:51:58;100989.47;;;10.89;71.95
12349;BME280;5974;42.710;27.258;2023-02-17T08:54:25;100985.78;;;10.33;70.42
12349;BME280;5974;42.710;27.258;2023-02-17T08:56:51;100984.88;;;10.34;71.85
12349;BME280;5974;42.710;27.258;2023-02-17T08:59:18;100984.50;;;11.11;71.34
12349;BME280;5974;42.710;27.258;2023-02-17T09:01:46;100979.41;;;10.44;70.86
12349;BME280;5974;42.710;27.258;2023-02-17T09:04:14;100988.13;;;11.36;70.54
12349;BME280;5974;42.710;27.258;2023-02-17T09:06:43;100975.59;;;11.46;69.82
12349;BME280;5974;42.710;27.258;2023-02-17T09:09:12;100986.50;;;11.60;69.32
12349;BME280;5974;42.710;27.258;2023-02-17T09:11:39;100964.44;;;11.69;69.24
12349;BME280;5974;42.710;27.258;2023-02-17T09:14:07;100965.34;;;12.71;67.92
12349;BME280;5974;42.710;27.258;2023-02-17T09:16:34;100972.72;;;11.83;68.41
12349;BME280;5974;42.710;27.258;2023-02-17T09:19:03;100964.00;;;11.55;68.31
12349;BME280;5974;42.710;27.258;2023-02-17T09:21:30;100957.69;;;11.60;69.80
12349;BME280;5974;42.710;27.258;2023-02-17T09:23:57;100957.56;;;11.92;68.34
12349;BME280;5974;42.710;27.258;2023-02-17T09:26:24;100964.09;;;12.32;66.97
12349;BME280;5974;42.710;27.258;2023-02-17T09:28:50;100946.69;;;13.02;66.07
12349;BME280;5974;42.710;27.258;2023-02-17T09:31:19;100949.13;;;13.31;65.30
12349;BME280;5974;42.710;27.258;2023-02-17T09:33:48;100946.03;;;13.43;63.85
12349;BME280;5974;42.710;27.258;2023-02-17T09:36:18;100952.56;;;13.33;64.77
12349;BME280;5974;42.710;27.258;2023-02-17T09:38:46;100948.78;;;13.40;64.36
12349;BME280;5974;42.710;27.258;2023-02-17T09:41:18;100945.38;;;13.15;65.58
12349;BME280;5974;42.710;27.258;2023-02-17T09:43:46;100948.78;;;13.62;63.95
12349;BME280;5974;42.710;27.258;2023-02-17T09:46:17;100938.69;;;13.95;63.43
12349;BME280;5974;42.710;27.258;2023-02-17T09:48:48;100940.03;;;14.05;61.66
12349;BME280;5974;42.710;27.258;2023-02-17T09:51:21;100938.16;;;13.87;63.25
12349;BME280;5974;42.710;27.258;2023-02-17T09:54:01;100933.81;;;13.86;63.29
12349;BME280;5974;42.710;27.258;2023-02-17T09:56:33;100932.50;;;13.96;63.46
12349;BME280;5974;42.710;27.258;2023-02-17T09:59:05;100931.19;;;13.64;62.93
12349;BME280;5974;42.710;27.258;2023-02-17T10:01:34;100932.00;;;14.08;63.88
12349;BME280;5974;42.710;27.258;2023-02-17T10:04:07;100920.16;;;13.98;63.94
12349;BME280;5974;42.710;27.258;2023-02-17T10:06:39;100913.31;;;13.72;63.30
12349;BME280;5974;42.710;27.258;2023-02-17T10:09:11;100915.06;;;14.35;62.29
12349;BME280;5974;42.710;27.258;2023-02-17T10:11:44;100924.50;;;14.19;61.93
12349;BME280;5974;42.710;27.258;2023-02-17T10:14:18;100921.84;;;14.61;61.71
12349;BME280;5974;42.710;27.258;2023-02-17T10:16:50;100916.47;;;14.02;61.15
12349;BME280;5974;42.710;27.258;2023-02-17T10:19:25;100907.28;;;14.52;61.03
12349;BME280;5974;42.710;27.258;2023-02-17T10:22:03;100909.97;;;14.31;59.79
12349;BME280;5974;42.710;27.258;2023-02-17T10:24:31;100903.00;;;14.70;60.71
12349;BME280;5974;42.710;27.258;2023-02-17T10:27:10;100897.41;;;15.15;59.43
12349;BME280;5974;42.710;27.258;2023-02-17T10:29:46;100881.28;;;15.58;57.04
12349;BME280;5974;42.710;27.258;2023-02-17T10:32:20;100888.00;;;14.72;57.98
12349;BME280;5974;42.710;27.258;2023-02-17T10:35:02;100875.19;;;15.92;56.73
12349;BME280;5974;42.710;27.258;2023-02-17T10:37:44;100876.22;;;15.54;56.82
12349;BME280;5974;42.710;27.258;2023-02-17T10:40:15;100865.25;;;16.14;55.91
12349;BME280;5974;42.710;27.258;2023-02-17T10:42:42;100871.16;;;16.02;56.31
12349;BME280;5974;42.710;27.258;2023-02-17T10:45:14;100867.50;;;16.05;55.43
12349;BME280;5974;42.710;27.258;2023-02-17T10:47:43;100866.88;;;15.65;56.09
12349;BME280;5974;42.710;27.258;2023-02-17T10:50:16;100873.44;;;15.38;55.61
12349;BME280;5974;42.710;27.258;2023-02-17T10:52:47;100865.03;;;14.55;57.56
12349;BME280;5974;42.710;27.258;2023-02-17T10:55:19;100870.56;;;14.09;58.25
12349;BME280;5974;42.710;27.258;2023-02-17T10:57:51;100868.41;;;14.19;58.67
12349;BME280;5974;42.710;27.258;2023-02-17T11:00:18;100854.41;;;13.98;59.41
12349;BME280;5974;42.710;27.258;2023-02-17T11:02:47;100862.41;;;14.55;59.77
12349;BME280;5974;42.710;27.258;2023-02-17T11:05:23;100855.06;;;14.03;60.67
12349;BME280;5974;42.710;27.258;2023-02-17T11:07:56;100857.19;;;14.93;60.02
12349;BME280;5974;42.710;27.258;2023-02-17T11:10:27;100851.16;;;14.91;58.06
12349;BME280;5974;42.710;27.258;2023-02-17T11:12:54;100835.81;;;13.62;60.28
12349;BME280;5974;42.710;27.258;2023-02-17T11:15:26;100854.09;;;13.43;61.95
12349;BME280;5974;42.710;27.258;2023-02-17T11:17:55;100849.19;;;13.56;61.73
12349;BME280;5974;42.710;27.258;2023-02-17T11:20:31;100835.69;;;14.05;61.02
12349;BME280;5974;42.710;27.258;2023-02-17T11:23:15;100841.38;;;14.15;60.19
12349;BME280;5974;42.710;27.258;2023-02-17T11:26:01;100833.06;;;13.85;60.33
12349;BME280;5974;42.710;27.258;2023-02-17T11:28:29;100827.66;;;13.88;60.65
12349;BME280;5974;42.710;27.258;2023-02-17T11:30:57;100831.00;;;14.32;60.17
12349;BME280;5974;42.710;27.258;2023-02-17T11:33:32;100833.59;;;14.52;58.98
12349;BME280;5974;42.710;27.258;2023-02-17T11:36:00;100815.16;;;13.73;59.65
12349;BME280;5974;42.710;27.258;2023-02-17T11:38:33;100821.03;;;13.80;59.55
12349;BME280;5974;42.710;27.258;2023-02-17T11:41:07;100828.91;;;14.00;59.83
12349;BME280;5974;42.710;27.258;2023-02-17T11:43:36;100806.44;;;13.73;59.10
12349;BME280;5974;42.710;27.258;2023-02-17T11:46:22;100811.22;;;14.03;58.56
12349;BME280;5974;42.710;27.258;2023-02-17T11:49:26;100805.59;;;14.51;57.91
12349;BME280;5974;42.710;27.258;2023-02-17T11:52:06;100801.88;;;14.55;57.44
12349;BME280;5974;42.710;27.258;2023-02-17T11:54:52;100801.16;;;15.08;55.81
12349;BME280;5974;42.710;27.258;2023-02-17T11:57:34;100795.78;;;15.45;54.12
12349;BME280;5974;42.710;27.258;2023-02-17T12:00:12;100783.38;;;15.13;54.17
12349;BME280;5974;42.710;27.258;2023-02-17T12:03:04;100788.84;;;15.08;54.17
12349;BME280;5974;42.710;27.258;2023-02-17T12:05:53;100776.19;;;14.98;53.17
12349;BME280;5974;42.710;27.258;2023-02-17T12:08:29;100780.47;;;15.17;52.93
12349;BME280;5974;42.710;27.258;2023-02-17T12:11:10;100768.44;;;15.31;52.50
12349;BME280;5974;42.710;27.258;2023-02-17T12:13:51;100770.09;;;15.67;51.37
12349;BME280;5974;42.710;27.258;2023-02-17T12:16:28;100774.75;;;16.12;49.81
12349;BME280;5974;42.710;27.258;2023-02-17T12:19:02;100767.22;;;16.22;48.71
12349;BME280;5974;42.710;27.258;2023-02-17T12:21:51;100756.63;;;16.06;48.35
12349;BME280;5974;42.710;27.258;2023-02-17T12:24:49;100760.59;;;16.31;48.26
12349;BME280;5974;42.710;27.258;2023-02-17T12:27:29;100756.81;;;16.83;47.70
12349;BME280;5974;42.710;27.258;2023-02-17T12:30:10;100739.91;;;17.17;46.65
12349;BME280;5974;42.710;27.258;2023-02-17T12:32:53;100749.25;;;16.28;47.52
12349;BME280;5974;42.710;27.258;2023-02-17T12:35:27;100743.59;;;16.36;48.05
12349;BME280;5974;42.710;27.258;2023-02-17T12:38:00;100744.22;;;16.57;47.84
12349;BME280;5974;42.710;27.258;2023-02-17T12:40:32;100741.72;;;16.54;48.14
12349;BME280;5974;42.710;27.258;2023-02-17T12:43:07;100744.59;;;16.01;48.43
12349;BME280;5974;42.710;27.258;2023-02-17T12:45:46;100743.56;;;16.20;46.71
12349;BME280;5974;42.710;27.258;2023-02-17T12:48:19;100737.50;;;16.83;46.81
12349;BME280;5974;42.710;27.258;2023-02-17T12:50:54;100740.22;;;16.65;46.67
12349;BME280;5974;42.710;27.258;2023-02-17T12:53:30;100732.75;;;16.25;46.68
12349;BME280;5974;42.710;27.258;2023-02-17T12:56:01;100731.84;;;16.09;46.32
12349;BME280;5974;42.710;27.258;2023-02-17T12:58:32;100733.19;;;16.00;47.00
12349;BME280;5974;42.710;27.258;2023-02-17T13:01:02;100734.97;;;16.00;47.64
12349;BME280;5974;42.710;27.258;2023-02-17T13:03:32;100741.94;;;16.34;47.10
12349;BME280;5974;42.710;27.258;2023-02-17T13:06:02;100743.47;;;16.22;47.10
12349;BME280;5974;42.710;27.258;2023-02-17T13:08:37;100745.03;;;16.09;47.71
12349;BME280;5974;42.710;27.258;2023-02-17T13:11:12;100747.78;;;16.56;47.58